Falmouth, Massachusetts
Current Conditions -  °F | °C
As of 3:55 PM on Tuesday 27 Jan 2015 (Local Time) from KFMH Reporting Station
Moderate Fog Moderate Fog  
Wind Chill:   Ceiling: 200
Heat Index: 18°   Visibility: 0mi
Dew Point: 14°   Wind: 22mph
Humidity: 86%   Direction: 330°NNW
Pressure: 29.36"   Gusts: 40mph
Location:  41.55°N, 70.61°W
Report Text: KFMH 272055Z AUTO 33019G35KT M1/4SM FZFG OVC002 M08/M10 A2936 RMK AO2 PWINO
Loading
Personal Weather Stations






























Interactive Weather Map New forecast layout! Learn more

10-Day Weather Forecast

Advertisements
Track Severe Weather on mobile